createdAt,value
2023-04-16T00:00:09.608Z,20.46
2023-04-16T00:02:41.602Z,20.39
2023-04-16T00:05:09.928Z,20.11
2023-04-16T00:07:38.010Z,20.19
2023-04-16T00:10:07.113Z,20.44
2023-04-16T00:12:36.592Z,20.46
2023-04-16T00:15:04.671Z,20.64
2023-04-16T00:17:33.035Z,20.34
2023-04-16T00:20:01.000Z,20.44
2023-04-16T00:22:29.372Z,20.34
2023-04-16T00:24:57.331Z,20.36
2023-04-16T00:27:25.221Z,20.30
2023-04-16T00:29:53.135Z,20.23
2023-04-16T00:32:21.013Z,20.18
2023-04-16T00:34:48.955Z,20.30
2023-04-16T00:37:17.076Z,20.33
2023-04-16T00:39:45.916Z,20.38
2023-04-16T00:42:14.470Z,20.38
2023-04-16T00:44:42.471Z,20.45
2023-04-16T00:47:11.806Z,20.31
2023-04-16T00:49:39.712Z,20.15
2023-04-16T00:52:07.736Z,20.33
2023-04-16T00:54:36.285Z,20.35
2023-04-16T00:57:04.276Z,20.10
2023-04-16T00:59:32.655Z,19.90
2023-04-16T01:02:00.920Z,20.06
2023-04-16T01:04:30.965Z,20.00
2023-04-16T01:06:59.081Z,20.13
2023-04-16T01:09:27.171Z,20.39
2023-04-16T01:11:55.230Z,20.51
2023-04-16T01:14:23.163Z,20.56
2023-04-16T01:16:51.267Z,20.15
2023-04-16T01:19:19.194Z,20.24
2023-04-16T01:21:47.347Z,20.42
2023-04-16T01:24:15.643Z,20.48
2023-04-16T01:26:44.090Z,20.64
2023-04-16T01:29:12.084Z,20.57
2023-04-16T01:31:40.121Z,20.50
2023-04-16T01:34:27.171Z,19.98
2023-04-16T01:36:55.641Z,19.83
2023-04-16T01:39:23.599Z,20.22
2023-04-16T01:41:51.513Z,20.13
2023-04-16T01:44:19.478Z,20.04
2023-04-16T01:46:47.821Z,20.26
2023-04-16T01:49:15.837Z,20.53
2023-04-16T01:51:43.722Z,20.53
2023-04-16T01:54:11.653Z,20.38
2023-04-16T01:56:42.090Z,20.14
2023-04-16T01:59:10.114Z,20.44
2023-04-16T02:01:42.597Z,20.66
2023-04-16T02:04:11.045Z,20.61
2023-04-16T02:06:39.450Z,20.55
2023-04-16T02:09:07.583Z,20.61
2023-04-16T02:11:36.513Z,20.60
2023-04-16T02:14:04.391Z,20.39
2023-04-16T02:16:32.318Z,20.37
2023-04-16T02:19:19.184Z,20.30
2023-04-16T02:21:48.134Z,20.61
2023-04-16T02:24:16.396Z,20.49
2023-04-16T02:26:45.170Z,20.64
2023-04-16T02:29:16.583Z,20.75
2023-04-16T02:31:48.898Z,20.76
2023-04-16T02:34:16.867Z,20.29
2023-04-16T02:36:44.758Z,20.08
2023-04-16T02:39:12.857Z,20.07
2023-04-16T02:41:41.086Z,20.19
2023-04-16T02:44:09.077Z,20.54
2023-04-16T02:46:37.420Z,20.72
2023-04-16T02:49:05.338Z,21.12
2023-04-16T02:51:33.535Z,21.02
2023-04-16T02:54:03.053Z,20.50
2023-04-16T02:56:31.790Z,20.34
2023-04-16T02:58:59.754Z,20.40
2023-04-16T03:01:29.130Z,20.49
2023-04-16T03:03:57.313Z,20.50
2023-04-16T03:06:27.970Z,20.54
2023-04-16T03:08:56.026Z,20.78
2023-04-16T03:11:24.163Z,20.75
2023-04-16T03:13:52.146Z,20.65
2023-04-16T03:16:20.083Z,20.53
2023-04-16T03:18:48.129Z,20.73
2023-04-16T03:21:18.462Z,20.62
2023-04-16T03:23:46.410Z,20.56
2023-04-16T03:26:14.314Z,20.79
2023-04-16T03:28:48.467Z,20.75
2023-04-16T03:31:16.532Z,20.21
2023-04-16T03:33:44.604Z,20.12
2023-04-16T03:36:12.579Z,20.46
2023-04-16T03:38:40.523Z,20.86
2023-04-16T03:41:10.247Z,20.99
2023-04-16T03:43:38.431Z,20.64
2023-04-16T03:46:06.876Z,20.68
2023-04-16T03:48:35.341Z,20.93
2023-04-16T03:51:03.499Z,21.19
2023-04-16T03:53:32.270Z,21.36
2023-04-16T03:56:00.391Z,21.27
2023-04-16T03:58:29.300Z,21.11
2023-04-16T04:00:57.650Z,20.52
2023-04-16T04:03:26.407Z,20.54
2023-04-16T04:05:55.171Z,20.45
2023-04-16T04:08:29.901Z,20.86
2023-04-16T04:10:58.234Z,20.84
2023-04-16T04:13:27.235Z,20.49
2023-04-16T04:15:55.503Z,20.38
2023-04-16T04:18:24.391Z,20.35
2023-04-16T04:20:52.521Z,20.46
2023-04-16T04:23:22.594Z,20.41
2023-04-16T04:25:51.608Z,20.29
2023-04-16T04:28:19.935Z,20.86
2023-04-16T04:30:48.174Z,20.80
2023-04-16T04:33:17.441Z,20.62
2023-04-16T04:35:45.438Z,21.25
2023-04-16T04:38:14.955Z,21.05
2023-04-16T04:40:44.538Z,20.76
2023-04-16T04:43:12.538Z,21.04
2023-04-16T04:45:40.868Z,21.09
2023-04-16T04:48:09.008Z,21.28
2023-04-16T04:50:37.054Z,21.38
2023-04-16T04:53:10.054Z,21.48
2023-04-16T04:55:41.597Z,21.47
2023-04-16T04:58:10.091Z,21.14
2023-04-16T05:00:38.472Z,20.98
2023-04-16T05:03:10.630Z,20.75
2023-04-16T05:05:41.930Z,20.79
2023-04-16T05:08:10.483Z,20.72
2023-04-16T05:10:38.726Z,20.60
2023-04-16T05:13:06.671Z,20.49
2023-04-16T05:15:34.620Z,20.64
2023-04-16T05:18:02.576Z,21.05
2023-04-16T05:20:31.053Z,21.05
2023-04-16T05:22:59.160Z,20.93
2023-04-16T05:25:27.269Z,20.90
2023-04-16T05:27:55.185Z,20.38
2023-04-16T05:30:23.146Z,20.20
2023-04-16T05:32:51.833Z,19.95
2023-04-16T05:35:19.902Z,19.54
2023-04-16T05:37:47.912Z,19.83
2023-04-16T05:40:15.937Z,20.32
2023-04-16T05:42:43.904Z,20.30
2023-04-16T05:45:11.965Z,20.50
2023-04-16T05:47:40.608Z,20.66
2023-04-16T05:50:09.017Z,20.76
2023-04-16T05:52:37.006Z,20.79
2023-04-16T05:55:05.857Z,20.76
2023-04-16T05:57:33.862Z,20.77
2023-04-16T06:00:01.846Z,21.21
2023-04-16T06:02:40.033Z,20.96
2023-04-16T06:05:08.528Z,21.21
2023-04-16T06:07:36.624Z,21.30
2023-04-16T06:10:05.795Z,21.44
2023-04-16T06:12:33.861Z,21.75
2023-04-16T06:15:01.929Z,21.75
2023-04-16T06:17:30.403Z,21.81
2023-04-16T06:19:58.387Z,22.07
2023-04-16T06:22:26.483Z,21.89
2023-04-16T06:24:54.583Z,21.66
2023-04-16T06:27:22.596Z,21.65
2023-04-16T06:29:50.774Z,21.72
2023-04-16T06:32:18.801Z,21.48
2023-04-16T06:34:46.741Z,21.58
2023-04-16T06:37:14.673Z,21.56
2023-04-16T06:39:42.603Z,21.58
2023-04-16T06:42:10.593Z,21.44
2023-04-16T06:44:39.871Z,21.54
2023-04-16T06:47:08.051Z,21.72
2023-04-16T06:49:36.226Z,21.08
2023-04-16T06:52:05.928Z,20.94
2023-04-16T06:54:34.347Z,20.99
2023-04-16T06:57:02.340Z,21.19
2023-04-16T06:59:30.500Z,21.25
2023-04-16T07:01:59.999Z,21.18
2023-04-16T07:04:28.389Z,21.20
2023-04-16T07:06:56.519Z,21.41
2023-04-16T07:09:25.034Z,20.66
2023-04-16T07:11:53.854Z,20.81
2023-04-16T07:14:21.887Z,20.98
2023-04-16T07:16:50.034Z,21.07
2023-04-16T07:19:18.106Z,21.12
2023-04-16T07:21:46.308Z,20.82
2023-04-16T07:24:14.264Z,21.02
2023-04-16T07:26:42.775Z,20.97
2023-04-16T07:29:10.977Z,20.81
2023-04-16T07:31:39.182Z,21.04
2023-04-16T07:34:07.191Z,21.04
2023-04-16T07:36:35.585Z,21.08
2023-04-16T07:39:06.970Z,21.23
2023-04-16T07:41:35.386Z,21.32
2023-04-16T07:44:03.639Z,21.49
2023-04-16T07:46:45.727Z,21.05
2023-04-16T07:49:14.938Z,21.28
2023-04-16T07:51:43.309Z,20.99
2023-04-16T07:54:11.575Z,21.56
2023-04-16T07:56:39.609Z,21.39
2023-04-16T07:59:19.190Z,21.34
2023-04-16T08:01:52.746Z,21.29
2023-04-16T08:04:25.014Z,21.14
2023-04-16T08:06:54.489Z,20.81
2023-04-16T08:09:23.165Z,21.13
2023-04-16T08:11:51.399Z,21.33
2023-04-16T08:14:19.287Z,21.48
2023-04-16T08:16:47.206Z,21.57
2023-04-16T08:19:15.135Z,21.57
2023-04-16T08:21:43.116Z,21.50
2023-04-16T08:24:11.832Z,21.44
2023-04-16T08:26:39.774Z,21.38
2023-04-16T08:29:08.159Z,21.21
2023-04-16T08:31:36.216Z,21.22
2023-04-16T08:34:04.523Z,21.30
2023-04-16T08:36:32.460Z,21.27
2023-04-16T08:39:00.391Z,21.60
2023-04-16T08:41:31.174Z,21.67
2023-04-16T08:44:00.392Z,21.69
2023-04-16T08:46:28.572Z,21.69
2023-04-16T08:48:56.524Z,21.60
2023-04-16T08:51:24.434Z,21.81
2023-04-16T08:53:53.301Z,22.05
2023-04-16T08:56:23.133Z,22.12
2023-04-16T08:58:51.358Z,22.11
2023-04-16T09:01:19.432Z,22.08
2023-04-16T09:03:48.275Z,22.10
2023-04-16T09:06:17.043Z,22.15
2023-04-16T09:08:45.824Z,22.05
2023-04-16T09:11:14.004Z,21.97
2023-04-16T09:13:42.439Z,22.14
2023-04-16T09:16:10.860Z,22.22
2023-04-16T09:18:39.119Z,22.05
2023-04-16T09:21:09.514Z,22.15
2023-04-16T09:23:41.146Z,21.91
2023-04-16T09:26:09.056Z,22.07
2023-04-16T09:28:46.935Z,22.02
2023-04-16T09:31:16.456Z,22.09
2023-04-16T09:34:00.373Z,22.27
2023-04-16T09:36:28.286Z,22.04
2023-04-16T09:38:57.766Z,22.18
2023-04-16T09:41:28.121Z,22.12
2023-04-16T09:44:04.271Z,22.18
2023-04-16T09:46:37.665Z,22.09
2023-04-16T09:49:09.454Z,22.02
2023-04-16T09:51:38.639Z,22.48
2023-04-16T09:54:06.943Z,22.59
2023-04-16T09:56:43.212Z,22.53
2023-04-16T09:59:18.461Z,22.53
2023-04-16T10:01:47.097Z,22.47
2023-04-16T10:04:16.398Z,22.33
2023-04-16T10:06:44.642Z,22.41
2023-04-16T10:09:12.740Z,22.20
2023-04-16T10:11:41.094Z,22.04
2023-04-16T10:14:10.297Z,22.30
2023-04-16T10:16:41.249Z,22.56
2023-04-16T10:19:09.596Z,22.82
2023-04-16T10:21:37.973Z,22.49
2023-04-16T10:24:06.226Z,22.73
2023-04-16T10:26:34.594Z,22.96
2023-04-16T10:29:02.760Z,23.05
2023-04-16T10:31:30.944Z,23.13
2023-04-16T10:33:58.900Z,23.08
2023-04-16T10:36:27.173Z,22.97
2023-04-16T10:38:59.057Z,23.25
2023-04-16T10:41:27.526Z,23.34
2023-04-16T10:44:10.076Z,23.51
2023-04-16T10:46:40.249Z,23.26
2023-04-16T10:49:16.259Z,22.69
2023-04-16T10:51:54.749Z,22.60
2023-04-16T10:54:29.480Z,22.84
2023-04-16T10:56:59.056Z,22.95
2023-04-16T10:59:30.976Z,23.07
2023-04-16T11:05:03.539Z,18.19
2023-04-16T11:07:33.821Z,19.61
2023-04-16T11:10:06.345Z,19.86
2023-04-16T11:12:47.500Z,19.54
2023-04-16T11:15:16.246Z,20.12
2023-04-16T11:17:48.851Z,20.36
2023-04-16T11:20:19.943Z,20.66
2023-04-16T11:22:51.845Z,20.63
2023-04-16T11:25:23.289Z,20.52
2023-04-16T11:27:52.043Z,20.89
2023-04-16T11:30:37.476Z,20.86
2023-04-16T11:33:06.261Z,21.47
2023-04-16T11:35:35.912Z,21.67
2023-04-16T11:38:06.074Z,21.73
2023-04-16T11:40:34.247Z,21.96
2023-04-16T11:43:14.922Z,21.90
2023-04-16T11:45:59.286Z,21.77
2023-04-16T11:48:46.862Z,22.13
2023-04-16T11:51:15.043Z,21.88
2023-04-16T11:53:53.404Z,22.17
2023-04-16T11:56:26.284Z,22.30
2023-04-16T11:59:28.096Z,22.15
2023-04-16T12:01:56.334Z,22.28
2023-04-16T12:04:29.440Z,22.08
2023-04-16T12:07:13.567Z,22.22
2023-04-16T12:09:43.603Z,21.76
2023-04-16T12:12:32.151Z,21.95
2023-04-16T12:15:03.704Z,21.68
2023-04-16T12:17:33.011Z,21.99
2023-04-16T12:20:03.991Z,22.24
2023-04-16T12:22:36.824Z,21.82
2023-04-16T12:25:10.686Z,21.68
2023-04-16T12:27:52.366Z,21.69
2023-04-16T12:30:22.913Z,22.03
2023-04-16T12:32:52.399Z,22.05
2023-04-16T12:35:31.584Z,21.90
2023-04-16T12:38:00.151Z,21.41
2023-04-16T12:40:28.309Z,21.47
2023-04-16T12:42:56.592Z,21.64
2023-04-16T12:45:24.730Z,21.76
2023-04-16T12:47:52.834Z,21.76
2023-04-16T12:50:20.997Z,21.66
2023-04-16T12:52:49.113Z,21.92
2023-04-16T12:55:17.018Z,22.11
2023-04-16T12:57:44.923Z,22.13
2023-04-16T13:00:14.823Z,22.28
2023-04-16T13:02:43.275Z,22.42
2023-04-16T13:05:11.592Z,22.50
2023-04-16T13:07:39.574Z,22.37
2023-04-16T13:10:08.312Z,22.37
2023-04-16T13:12:36.628Z,22.36
2023-04-16T13:15:05.479Z,22.37
2023-04-16T13:17:33.520Z,22.26
2023-04-16T13:20:01.654Z,22.02
2023-04-16T13:22:30.325Z,22.31
2023-04-16T13:24:58.252Z,22.23
2023-04-16T13:27:26.259Z,22.11
2023-04-16T13:29:54.214Z,22.22
2023-04-16T13:32:22.180Z,22.17
2023-04-16T13:34:50.026Z,22.08
2023-04-16T13:37:17.966Z,22.12
2023-04-16T13:39:45.972Z,22.05
2023-04-16T13:42:14.207Z,22.11
2023-04-16T13:44:42.662Z,22.12
2023-04-16T13:47:11.302Z,22.28
2023-04-16T13:49:39.194Z,22.42
2023-04-16T13:52:07.103Z,22.45
2023-04-16T13:54:35.483Z,22.38
2023-04-16T13:57:03.621Z,22.30
2023-04-16T13:59:31.649Z,22.40
2023-04-16T14:01:59.565Z,22.08
2023-04-16T14:04:27.721Z,22.18
2023-04-16T14:06:56.221Z,22.08
2023-04-16T14:09:24.459Z,21.92
2023-04-16T14:11:52.494Z,21.78
2023-04-16T14:14:20.715Z,21.87
2023-04-16T14:16:48.938Z,21.97
2023-04-16T14:19:17.097Z,22.03
2023-04-16T14:21:45.042Z,22.16
2023-04-16T14:24:13.020Z,22.11
2023-04-16T14:26:43.537Z,22.22
2023-04-16T14:29:11.653Z,21.87
2023-04-16T14:31:40.474Z,21.86
2023-04-16T14:34:08.641Z,21.65
2023-04-16T14:36:36.865Z,21.83
2023-04-16T14:39:04.758Z,21.98
2023-04-16T14:41:33.024Z,21.98
2023-04-16T14:44:01.319Z,21.74
2023-04-16T14:46:30.615Z,21.66
2023-04-16T14:48:58.539Z,21.75
2023-04-16T14:51:27.468Z,21.93
2023-04-16T14:53:56.245Z,21.95
2023-04-16T14:56:24.203Z,22.05
2023-04-16T14:58:52.116Z,22.16
2023-04-16T15:01:20.054Z,22.04
2023-04-16T15:03:48.127Z,22.00
2023-04-16T15:06:16.588Z,21.93
2023-04-16T15:08:44.933Z,22.12
2023-04-16T15:11:12.945Z,22.34
2023-04-16T15:13:42.026Z,22.35
2023-04-16T15:16:10.433Z,22.13
2023-04-16T15:18:38.504Z,21.99
2023-04-16T15:21:06.466Z,22.20
2023-04-16T15:23:35.443Z,22.17
2023-04-16T15:26:03.414Z,21.92
2023-04-16T15:28:31.924Z,21.82
2023-04-16T15:31:00.120Z,21.99
2023-04-16T15:33:29.040Z,21.91
2023-04-16T15:35:57.006Z,21.87
2023-04-16T15:38:24.943Z,22.09
2023-04-16T15:40:52.850Z,22.32
2023-04-16T15:43:20.776Z,22.08
2023-04-16T15:45:48.831Z,21.87
2023-04-16T15:48:17.277Z,22.07
2023-04-16T15:50:45.386Z,21.97
2023-04-16T15:53:13.571Z,22.27
2023-04-16T15:55:42.719Z,22.23
2023-04-16T15:58:12.971Z,22.20
2023-04-16T16:00:41.569Z,22.48
2023-04-16T16:03:10.600Z,22.44
2023-04-16T16:05:40.359Z,22.47
2023-04-16T16:08:08.382Z,22.59
2023-04-16T16:10:36.450Z,22.61
2023-04-16T16:13:06.143Z,22.68
2023-04-16T16:15:35.036Z,22.47
2023-04-16T16:18:03.324Z,22.51
2023-04-16T16:20:31.980Z,22.35
2023-04-16T16:23:00.351Z,22.32
2023-04-16T16:25:29.115Z,22.53
2023-04-16T16:27:58.887Z,22.22
2023-04-16T16:30:27.256Z,22.27
2023-04-16T16:32:55.468Z,22.24
2023-04-16T16:35:23.513Z,22.13
2023-04-16T16:37:55.460Z,22.04
2023-04-16T16:40:23.807Z,22.22
2023-04-16T16:42:51.782Z,21.95
2023-04-16T16:45:19.764Z,21.54
2023-04-16T16:47:48.900Z,21.42
2023-04-16T16:50:17.738Z,21.74
2023-04-16T16:52:45.963Z,21.51
2023-04-16T16:55:13.866Z,21.63
2023-04-16T16:57:42.384Z,21.68
2023-04-16T17:00:19.738Z,21.88
2023-04-16T17:02:51.238Z,22.10
2023-04-16T17:05:19.944Z,22.06
2023-04-16T17:07:51.118Z,21.90
2023-04-16T17:10:22.467Z,22.02
2023-04-16T17:12:51.204Z,22.15
2023-04-16T17:15:21.810Z,22.18
2023-04-16T17:17:50.534Z,22.43
2023-04-16T17:20:18.665Z,22.44
2023-04-16T17:22:46.859Z,22.18
2023-04-16T17:25:15.645Z,22.24
2023-04-16T17:27:43.886Z,22.13
2023-04-16T17:30:12.111Z,22.09
2023-04-16T17:32:40.926Z,21.83
2023-04-16T17:35:10.268Z,21.84
2023-04-16T17:37:38.948Z,21.72
2023-04-16T17:40:08.070Z,21.95
2023-04-16T17:42:36.883Z,22.07
2023-04-16T17:45:05.666Z,22.30
2023-04-16T17:47:36.871Z,22.52
2023-04-16T17:50:05.070Z,22.65
2023-04-16T17:52:33.251Z,22.52
2023-04-16T17:55:01.762Z,22.20
2023-04-16T17:57:30.577Z,22.00
2023-04-16T17:59:58.585Z,22.11
2023-04-16T18:02:26.921Z,22.15
2023-04-16T18:04:55.114Z,22.04
2023-04-16T18:07:23.181Z,21.96
2023-04-16T18:09:51.121Z,21.88
2023-04-16T18:12:19.272Z,21.72
2023-04-16T18:14:47.268Z,21.68
2023-04-16T18:17:15.648Z,21.74
2023-04-16T18:19:44.552Z,21.93
2023-04-16T18:22:13.394Z,21.94
2023-04-16T18:24:41.357Z,21.97
2023-04-16T18:27:09.358Z,21.82
2023-04-16T18:29:39.610Z,22.03
2023-04-16T18:32:12.355Z,22.14
2023-04-16T18:34:40.742Z,22.14
2023-04-16T18:37:08.906Z,22.09
2023-04-16T18:39:37.416Z,22.13
2023-04-16T18:42:05.394Z,22.11
2023-04-16T18:44:33.857Z,22.24
2023-04-16T18:47:01.830Z,22.33
2023-04-16T18:49:29.986Z,22.30
2023-04-16T18:51:59.792Z,22.44
2023-04-16T18:54:28.044Z,22.43
2023-04-16T18:56:57.777Z,22.40
2023-04-16T18:59:27.964Z,22.33
2023-04-16T19:01:56.278Z,22.13
2023-04-16T19:04:24.396Z,22.30
2023-04-16T19:06:52.765Z,22.45
2023-04-16T19:09:20.649Z,22.47
2023-04-16T19:11:50.609Z,22.24
2023-04-16T19:14:18.730Z,22.26
2023-04-16T19:16:47.495Z,22.13
2023-04-16T19:19:16.990Z,22.18
2023-04-16T19:21:44.954Z,22.25
2023-04-16T19:24:12.870Z,22.63
2023-04-16T19:26:40.904Z,22.70
2023-04-16T19:29:08.979Z,22.63
2023-04-16T19:31:37.078Z,22.52
2023-04-16T19:34:05.097Z,22.49
2023-04-16T19:36:34.407Z,22.52
2023-04-16T19:39:02.334Z,22.57
2023-04-16T19:41:30.902Z,22.41
2023-04-16T19:43:59.045Z,22.50
2023-04-16T19:46:27.148Z,22.43
2023-04-16T19:48:56.773Z,22.24
2023-04-16T19:51:24.779Z,22.55
2023-04-16T19:53:53.474Z,22.39
2023-04-16T19:56:21.404Z,22.31
2023-04-16T19:58:51.864Z,21.89
2023-04-16T20:01:19.767Z,21.85
2023-04-16T20:03:47.768Z,21.75
2023-04-16T20:06:17.441Z,21.85
2023-04-16T20:08:45.387Z,21.74
2023-04-16T20:11:13.340Z,21.57
2023-04-16T20:13:43.193Z,21.57
2023-04-16T20:16:13.824Z,21.59
2023-04-16T20:18:42.302Z,21.58
2023-04-16T20:21:10.549Z,21.59
2023-04-16T20:23:38.500Z,21.62
2023-04-16T20:26:06.918Z,21.56
2023-04-16T20:28:34.942Z,21.45
2023-04-16T20:31:02.940Z,21.61
2023-04-16T20:33:31.027Z,21.72
2023-04-16T20:35:59.020Z,21.72
2023-04-16T20:38:29.655Z,21.44
2023-04-16T20:41:10.618Z,21.10
2023-04-16T20:43:41.010Z,20.91
2023-04-16T20:46:10.812Z,20.99
2023-04-16T20:48:39.108Z,21.16
2023-04-16T20:51:07.856Z,21.19
2023-04-16T20:53:38.874Z,21.18
2023-04-16T20:56:08.370Z,21.29
2023-04-16T20:58:40.691Z,21.30
2023-04-16T21:01:08.681Z,21.26
2023-04-16T21:03:37.364Z,21.34
2023-04-16T21:06:05.612Z,21.35
2023-04-16T21:08:33.785Z,21.30
2023-04-16T21:11:03.453Z,21.42
2023-04-16T21:13:31.428Z,21.31
2023-04-16T21:15:59.397Z,21.26
2023-04-16T21:18:27.592Z,21.25
2023-04-16T21:20:56.031Z,21.17
2023-04-16T21:23:24.118Z,21.24
2023-04-16T21:25:52.087Z,21.31
2023-04-16T21:28:20.462Z,21.33
2023-04-16T21:30:52.295Z,21.28
2023-04-16T21:33:21.710Z,21.35
2023-04-16T21:35:53.240Z,21.42
2023-04-16T21:38:22.254Z,21.37
2023-04-16T21:40:53.586Z,21.35
2023-04-16T21:43:25.233Z,21.44
2023-04-16T21:45:56.422Z,21.50
2023-04-16T21:48:24.215Z,21.19
2023-04-16T21:50:59.235Z,20.75
2023-04-16T21:53:28.162Z,21.02
2023-04-16T21:55:56.101Z,21.17
2023-04-16T21:58:25.827Z,21.27
2023-04-16T22:00:53.913Z,21.14
2023-04-16T22:03:26.376Z,21.20
2023-04-16T22:06:00.934Z,21.16
2023-04-16T22:08:29.602Z,20.83
2023-04-16T22:11:02.074Z,20.54
2023-04-16T22:13:36.491Z,20.73
2023-04-16T22:16:05.765Z,20.87
2023-04-16T22:18:34.177Z,20.66
2023-04-16T22:21:02.835Z,20.52
2023-04-16T22:23:30.812Z,20.65
2023-04-16T22:25:58.661Z,20.72
2023-04-16T22:28:27.337Z,20.70
2023-04-16T22:30:55.286Z,20.91
2023-04-16T22:33:23.386Z,21.05
2023-04-16T22:35:51.529Z,20.86
2023-04-16T22:38:19.491Z,20.70
2023-04-16T22:40:48.623Z,20.82
2023-04-16T22:43:18.131Z,20.86
2023-04-16T22:45:48.996Z,20.84
2023-04-16T22:48:17.266Z,20.96
2023-04-16T22:50:48.410Z,20.87
2023-04-16T22:53:17.211Z,21.04
2023-04-16T22:55:45.303Z,20.99
2023-04-16T22:58:13.252Z,21.10
2023-04-16T23:00:41.163Z,21.04
2023-04-16T23:03:09.256Z,21.20
2023-04-16T23:05:37.472Z,21.22
2023-04-16T23:08:06.100Z,21.11
2023-04-16T23:10:34.252Z,21.31
2023-04-16T23:13:03.030Z,21.11
2023-04-16T23:15:31.137Z,21.08
2023-04-16T23:17:59.411Z,21.05
2023-04-16T23:21:49.198Z,16.57
2023-04-16T23:24:17.262Z,17.92
2023-04-16T23:26:45.381Z,18.18
2023-04-16T23:29:13.467Z,18.24
2023-04-16T23:31:41.676Z,18.48
2023-04-16T23:34:09.639Z,18.48
2023-04-16T23:36:37.811Z,18.54
2023-04-16T23:39:06.034Z,18.69
2023-04-16T23:41:34.256Z,18.75
2023-04-16T23:44:02.559Z,18.70
2023-04-16T23:46:30.723Z,18.66
2023-04-16T23:48:58.727Z,18.65
2023-04-16T23:51:26.651Z,18.67
2023-04-16T23:53:54.552Z,18.63
2023-04-16T23:56:22.454Z,18.73
2023-04-16T23:58:50.496Z,18.84
